createdAt,value
2022-10-02T00:00:37.398Z,83.41
2022-10-02T00:03:15.865Z,83.60
2022-10-02T00:05:47.425Z,83.41
2022-10-02T00:08:23.308Z,83.28
2022-10-02T00:10:54.977Z,83.20
2022-10-02T00:13:35.014Z,83.22
2022-10-02T00:16:05.104Z,83.16
2022-10-02T00:18:35.832Z,83.47
2022-10-02T00:21:40.145Z,83.74
2022-10-02T00:24:11.629Z,84.01
2022-10-02T00:26:52.695Z,84.01
2022-10-02T00:29:28.320Z,84.25
2022-10-02T00:32:15.400Z,84.60
2022-10-02T00:34:44.681Z,84.60
2022-10-02T00:37:51.947Z,83.70
2022-10-02T00:40:33.452Z,83.88
2022-10-02T00:43:41.639Z,83.91
2022-10-02T00:46:38.539Z,85.06
2022-10-02T00:49:37.317Z,85.42
2022-10-02T00:52:22.511Z,86.11
2022-10-02T00:55:15.436Z,86.21
2022-10-02T00:58:05.027Z,86.19
2022-10-02T01:00:34.346Z,86.38
2022-10-02T01:03:23.722Z,87.98
2022-10-02T01:05:50.646Z,87.40
2022-10-02T01:08:17.237Z,87.15
2022-10-02T01:10:43.782Z,87.75
2022-10-02T01:13:10.240Z,88.59
2022-10-02T01:15:42.330Z,88.18
2022-10-02T01:18:11.986Z,88.46
2022-10-02T01:20:42.224Z,88.53
2022-10-02T01:23:23.943Z,87.19
2022-10-02T01:25:50.750Z,86.39
2022-10-02T01:28:19.536Z,87.33
2022-10-02T01:30:50.060Z,86.69
2022-10-02T01:33:17.732Z,87.12
2022-10-02T01:35:44.549Z,87.69
2022-10-02T01:38:14.402Z,88.30
2022-10-02T01:40:41.832Z,88.75
2022-10-02T01:43:16.643Z,89.23
2022-10-02T01:46:00.975Z,88.82
2022-10-02T01:48:57.991Z,89.37
2022-10-02T01:51:45.519Z,89.06
2022-10-02T01:54:11.881Z,89.17
2022-10-02T01:56:54.032Z,89.39
2022-10-02T01:59:44.856Z,89.61
2022-10-02T02:02:33.880Z,89.79
2022-10-02T02:05:10.551Z,89.87
2022-10-02T02:07:54.210Z,89.58
2022-10-02T02:10:31.703Z,88.04
2022-10-02T02:13:05.409Z,86.09
2022-10-02T02:15:49.243Z,85.42
2022-10-02T02:18:41.546Z,85.27
2022-10-02T02:21:36.707Z,84.97
2022-10-02T02:24:09.330Z,84.63
2022-10-02T02:26:36.677Z,84.44
2022-10-02T02:29:09.543Z,84.41
2022-10-02T02:31:42.322Z,84.47
2022-10-02T02:34:14.520Z,84.74
2022-10-02T02:36:44.553Z,84.77
2022-10-02T02:39:18.974Z,84.86
2022-10-02T02:41:54.175Z,85.07
2022-10-02T02:44:39.714Z,84.90
2022-10-02T02:47:12.722Z,84.81
2022-10-02T02:49:45.354Z,84.48
2022-10-02T02:52:19.318Z,84.81
2022-10-02T02:54:54.884Z,84.86
2022-10-02T02:57:28.557Z,84.80
2022-10-02T02:59:59.054Z,84.95
2022-10-02T03:02:25.500Z,84.98
2022-10-02T03:04:51.949Z,84.71
2022-10-02T03:07:18.634Z,84.80
2022-10-02T03:10:01.573Z,84.98
2022-10-02T03:12:49.508Z,84.89
2022-10-02T03:15:28.081Z,84.51
2022-10-02T03:18:17.135Z,84.81
2022-10-02T03:21:03.560Z,84.37
2022-10-02T03:23:57.409Z,84.38
2022-10-02T03:26:38.410Z,84.13
2022-10-02T03:29:27.749Z,84.25
2022-10-02T03:31:56.735Z,84.07
2022-10-02T03:34:24.284Z,83.90
2022-10-02T03:36:50.915Z,84.13
2022-10-02T03:39:25.211Z,83.99
2022-10-02T03:41:53.535Z,83.91
2022-10-02T03:44:23.583Z,84.14
2022-10-02T03:46:50.134Z,84.36
2022-10-02T03:49:24.111Z,84.64
2022-10-02T03:51:50.530Z,84.91
2022-10-02T03:54:24.067Z,85.24
2022-10-02T03:56:57.914Z,85.16
2022-10-02T03:59:49.205Z,85.04
2022-10-02T04:02:37.282Z,84.98
2022-10-02T04:05:26.522Z,84.93
2022-10-02T04:08:00.091Z,84.66
2022-10-02T04:10:41.149Z,84.48
2022-10-02T04:13:32.240Z,84.50
2022-10-02T04:16:10.448Z,84.62
2022-10-02T04:19:06.890Z,84.58
2022-10-02T04:21:59.158Z,84.50
2022-10-02T04:24:46.386Z,84.92
2022-10-02T04:27:22.003Z,86.52
2022-10-02T04:30:23.696Z,88.16
2022-10-02T04:32:50.437Z,89.59
2022-10-02T04:35:48.259Z,89.91
2022-10-02T04:38:33.961Z,90.31
2022-10-02T04:41:37.889Z,90.59
2022-10-02T04:44:19.225Z,91.25
2022-10-02T04:47:16.394Z,91.77
2022-10-02T04:49:54.321Z,91.98
2022-10-02T04:52:38.541Z,91.64
2022-10-02T04:55:42.414Z,90.83
2022-10-02T04:58:54.104Z,90.70
2022-10-02T05:01:40.325Z,89.56
2022-10-02T05:04:38.926Z,89.46
2022-10-02T05:07:32.655Z,88.98
2022-10-02T05:10:13.876Z,88.66
2022-10-02T05:12:59.006Z,88.80
2022-10-02T05:15:48.341Z,88.65
2022-10-02T05:18:39.498Z,88.71
2022-10-02T05:21:40.880Z,88.92
2022-10-02T05:24:35.738Z,88.76
2022-10-02T05:27:25.928Z,88.64
2022-10-02T05:29:55.734Z,88.50
2022-10-02T05:32:40.381Z,88.29
2022-10-02T05:35:19.064Z,88.56
2022-10-02T05:38:22.338Z,88.11
2022-10-02T05:41:22.142Z,88.29
2022-10-02T05:44:06.298Z,87.88
2022-10-02T05:46:43.669Z,88.09
2022-10-02T05:49:23.726Z,88.23
2022-10-02T05:52:13.555Z,88.02
2022-10-02T05:55:04.655Z,88.08
2022-10-02T05:57:50.314Z,88.04
2022-10-02T06:00:38.745Z,88.16
2022-10-02T06:03:29.052Z,88.02
2022-10-02T06:06:04.180Z,87.89
2022-10-02T06:09:04.374Z,87.83
2022-10-02T06:11:33.947Z,87.67
2022-10-02T06:14:27.617Z,87.82
2022-10-02T06:17:13.350Z,87.57
2022-10-02T06:20:02.980Z,87.34
2022-10-02T06:22:41.123Z,87.16
2022-10-02T06:25:30.400Z,87.32
2022-10-02T06:28:05.522Z,87.40
2022-10-02T06:32:48.247Z,87.23
2022-10-02T06:35:34.359Z,87.34
2022-10-02T06:38:39.830Z,87.21
2022-10-02T06:41:20.465Z,86.93
2022-10-02T06:44:05.229Z,86.98
2022-10-02T06:46:36.880Z,86.87
2022-10-02T06:49:25.417Z,86.54
2022-10-02T06:52:27.445Z,86.68
2022-10-02T06:55:23.121Z,86.51
2022-10-02T06:58:26.671Z,86.69
2022-10-02T07:00:57.880Z,86.58
2022-10-02T07:03:24.299Z,86.52
2022-10-02T07:05:53.961Z,86.60
2022-10-02T07:08:37.918Z,86.21
2022-10-02T07:11:28.109Z,86.27
2022-10-02T07:14:30.264Z,86.44
2022-10-02T07:17:22.511Z,86.07
2022-10-02T07:20:26.396Z,86.28
2022-10-02T07:23:07.791Z,86.17
2022-10-02T07:25:45.875Z,85.88
2022-10-02T07:28:44.384Z,85.40
2022-10-02T07:31:21.467Z,85.72
2022-10-02T07:34:42.058Z,85.40
2022-10-02T07:37:37.718Z,84.78
2022-10-02T07:40:35.365Z,84.76
2022-10-02T07:43:17.063Z,84.84
2022-10-02T07:46:03.715Z,84.57
2022-10-02T07:48:48.081Z,84.26
2022-10-02T07:51:48.660Z,83.80
2022-10-02T07:54:28.359Z,82.76
2022-10-02T07:57:05.183Z,82.89
2022-10-02T07:59:43.432Z,82.29
2022-10-02T08:02:25.411Z,82.02
2022-10-02T08:04:58.333Z,82.02
2022-10-02T08:07:25.495Z,81.93
2022-10-02T08:09:54.033Z,81.62
2022-10-02T08:12:28.903Z,81.70
2022-10-02T08:14:57.253Z,81.50
2022-10-02T08:17:32.880Z,81.63
2022-10-02T08:20:18.571Z,82.04
2022-10-02T08:22:53.371Z,81.36
2022-10-02T08:25:25.462Z,82.05
2022-10-02T08:27:59.153Z,81.74
2022-10-02T08:30:25.583Z,81.75
2022-10-02T08:32:53.973Z,81.92
2022-10-02T08:35:21.428Z,81.76
2022-10-02T08:38:10.115Z,81.74
2022-10-02T08:41:27.790Z,81.70
2022-10-02T08:44:11.808Z,82.19
2022-10-02T08:46:41.154Z,82.43
2022-10-02T08:49:26.466Z,82.15
2022-10-02T08:52:09.934Z,82.27
2022-10-02T08:54:51.655Z,81.96
2022-10-02T08:57:37.307Z,81.34
2022-10-02T09:00:24.727Z,81.11
2022-10-02T09:03:28.407Z,81.09
2022-10-02T09:06:06.912Z,80.56
2022-10-02T09:08:58.329Z,80.80
2022-10-02T09:11:44.983Z,81.01
2022-10-02T09:14:41.932Z,81.15
2022-10-02T09:17:17.118Z,81.34
2022-10-02T09:19:46.770Z,81.53
2022-10-02T09:22:37.355Z,81.15
2022-10-02T09:25:24.439Z,81.37
2022-10-02T09:28:31.812Z,81.47
2022-10-02T09:31:26.185Z,81.22
2022-10-02T09:34:20.561Z,81.71
2022-10-02T09:37:31.194Z,81.35
2022-10-02T09:40:17.171Z,81.41
2022-10-02T09:43:04.478Z,81.41
2022-10-02T09:46:08.551Z,81.50
2022-10-02T09:48:56.690Z,81.59
2022-10-02T09:52:00.907Z,81.67
2022-10-02T09:54:55.413Z,81.60
2022-10-02T09:57:46.578Z,81.63
2022-10-02T10:00:37.747Z,82.07
2022-10-02T10:03:39.691Z,82.01
2022-10-02T10:06:28.422Z,81.85
2022-10-02T10:09:06.803Z,81.93
2022-10-02T10:12:02.782Z,82.14
2022-10-02T10:15:09.138Z,81.49
2022-10-02T10:17:46.124Z,81.62
2022-10-02T10:20:37.738Z,81.24
2022-10-02T10:23:18.665Z,80.35
2022-10-02T10:26:34.517Z,80.33
2022-10-02T10:29:09.757Z,79.96
2022-10-02T10:32:07.439Z,78.94
2022-10-02T10:34:46.048Z,78.48
2022-10-02T10:37:58.854Z,78.68
2022-10-02T10:40:37.041Z,78.18
2022-10-02T10:43:21.736Z,77.47
2022-10-02T10:46:13.017Z,76.98
2022-10-02T10:49:09.760Z,76.40
2022-10-02T10:52:07.372Z,77.86
2022-10-02T10:54:52.334Z,77.44
2022-10-02T10:57:36.807Z,77.18
2022-10-02T11:00:19.677Z,77.47
2022-10-02T11:03:17.032Z,77.64
2022-10-02T11:06:11.297Z,76.80
2022-10-02T11:09:00.819Z,77.31
2022-10-02T11:11:39.778Z,76.41
2022-10-02T11:14:15.485Z,76.19
2022-10-02T11:17:00.029Z,75.99
2022-10-02T11:19:41.709Z,75.77
2022-10-02T11:22:33.470Z,76.19
2022-10-02T11:25:12.832Z,76.28
2022-10-02T11:28:01.481Z,77.42
2022-10-02T11:30:54.871Z,76.95
2022-10-02T11:33:42.727Z,77.11
2022-10-02T11:36:25.828Z,76.85
2022-10-02T11:39:02.518Z,77.02
2022-10-02T11:42:03.204Z,74.02
2022-10-02T11:44:38.284Z,72.96
2022-10-02T11:47:04.689Z,72.38
2022-10-02T11:49:53.271Z,72.84
2022-10-02T11:52:47.983Z,73.01
2022-10-02T11:55:30.106Z,73.61
2022-10-02T11:58:18.674Z,73.39
2022-10-02T12:00:56.781Z,73.64
2022-10-02T12:03:36.437Z,73.52
2022-10-02T12:06:42.051Z,72.33
2022-10-02T12:09:18.455Z,71.44
2022-10-02T12:12:25.781Z,70.56
2022-10-02T12:14:59.977Z,71.23
2022-10-02T12:17:32.382Z,71.20
2022-10-02T12:20:39.923Z,70.95
2022-10-02T12:23:49.879Z,71.35
2022-10-02T12:26:57.082Z,71.76
2022-10-02T12:29:41.748Z,72.49
2022-10-02T12:32:23.390Z,71.06
2022-10-02T12:35:20.852Z,71.05
2022-10-02T12:38:11.648Z,71.11
2022-10-02T12:41:00.736Z,71.34
2022-10-02T12:43:46.305Z,71.42
2022-10-02T12:46:50.252Z,71.73
2022-10-02T12:49:37.219Z,71.51
2022-10-02T12:52:13.100Z,71.15
2022-10-02T12:55:13.930Z,69.36
2022-10-02T12:58:10.388Z,70.07
2022-10-02T13:01:14.364Z,69.90
2022-10-02T13:04:01.868Z,69.60
2022-10-02T13:06:49.768Z,68.84
2022-10-02T13:09:40.057Z,69.12
2022-10-02T13:12:37.304Z,66.56
2022-10-02T13:15:26.840Z,63.08
2022-10-02T13:18:16.847Z,64.57
2022-10-02T13:20:56.638Z,65.75
2022-10-02T13:23:50.914Z,64.49
2022-10-02T13:26:30.485Z,65.42
2022-10-02T13:29:21.666Z,65.25
2022-10-02T13:32:06.778Z,64.45
2022-10-02T13:34:59.828Z,64.15
2022-10-02T13:37:40.238Z,64.39
2022-10-02T13:40:18.794Z,65.24
2022-10-02T13:42:54.178Z,65.22
2022-10-02T13:45:20.550Z,65.65
2022-10-02T13:48:08.246Z,65.72
2022-10-02T13:51:05.145Z,67.94
2022-10-02T13:54:03.917Z,68.45
2022-10-02T13:56:44.037Z,68.45
2022-10-02T13:59:20.890Z,68.33
2022-10-02T14:01:50.191Z,66.18
2022-10-02T14:04:35.242Z,66.15
2022-10-02T14:07:23.001Z,66.38
2022-10-02T14:10:10.893Z,65.69
2022-10-02T14:12:39.932Z,65.57
2022-10-02T14:15:28.271Z,66.13
2022-10-02T14:18:26.169Z,65.45
2022-10-02T14:21:28.844Z,66.06
2022-10-02T14:24:43.089Z,66.65
2022-10-02T14:27:12.180Z,69.95
2022-10-02T14:29:56.181Z,71.76
2022-10-02T14:32:37.710Z,72.83
2022-10-02T14:35:41.880Z,73.30
2022-10-02T14:38:47.056Z,73.35
2022-10-02T14:41:29.284Z,73.61
2022-10-02T14:44:13.514Z,73.39
2022-10-02T14:46:59.381Z,73.44
2022-10-02T14:49:50.171Z,73.76
2022-10-02T14:52:22.653Z,73.64
2022-10-02T14:55:26.413Z,73.99
2022-10-02T14:57:58.541Z,72.95
2022-10-02T15:00:27.396Z,72.26
2022-10-02T15:03:24.191Z,71.27
2022-10-02T15:06:05.161Z,72.16
2022-10-02T15:08:40.288Z,72.78
2022-10-02T15:11:25.428Z,73.54
2022-10-02T15:14:03.595Z,73.51
2022-10-02T15:17:04.305Z,73.35
2022-10-02T15:19:39.722Z,73.40
2022-10-02T15:22:20.203Z,73.65
2022-10-02T15:24:55.008Z,72.89
2022-10-02T15:27:25.562Z,73.16
2022-10-02T15:30:04.282Z,73.77
2022-10-02T15:32:59.715Z,73.87
2022-10-02T15:35:54.586Z,73.59
2022-10-02T15:38:38.196Z,72.79
2022-10-02T15:41:47.926Z,72.31
2022-10-02T15:44:33.840Z,72.59
2022-10-02T15:47:38.218Z,72.30
2022-10-02T15:50:22.199Z,73.46
2022-10-02T15:53:00.225Z,73.90
2022-10-02T15:55:45.684Z,74.12
2022-10-02T15:58:30.102Z,74.90
2022-10-02T16:01:19.664Z,75.70
2022-10-02T16:03:57.906Z,76.00
2022-10-02T16:06:54.975Z,75.61
2022-10-02T16:09:42.468Z,75.19
2022-10-02T16:12:27.629Z,74.74
2022-10-02T16:15:02.747Z,74.60
2022-10-02T16:17:47.119Z,75.11
2022-10-02T16:20:25.814Z,74.98
2022-10-02T16:23:03.202Z,75.00
2022-10-02T16:25:54.170Z,76.15
2022-10-02T16:28:31.490Z,76.41
2022-10-02T16:31:19.615Z,76.90
2022-10-02T16:34:03.417Z,76.71
2022-10-02T16:36:50.637Z,77.57
2022-10-02T16:39:59.289Z,77.85
2022-10-02T16:42:29.099Z,77.86
2022-10-02T16:45:21.488Z,78.61
2022-10-02T16:48:01.648Z,78.89
2022-10-02T16:50:46.303Z,79.82
2022-10-02T16:53:34.628Z,80.40
2022-10-02T16:56:13.261Z,80.53
2022-10-02T16:59:01.450Z,80.67
2022-10-02T17:01:59.057Z,81.29
2022-10-02T17:04:51.358Z,81.69
2022-10-02T17:07:50.189Z,81.64
2022-10-02T17:10:25.337Z,81.71
2022-10-02T17:13:09.757Z,81.91
2022-10-02T17:15:43.427Z,81.97
2022-10-02T17:18:39.816Z,82.37
2022-10-02T17:21:31.980Z,82.37
2022-10-02T17:24:17.015Z,82.52
2022-10-02T17:26:53.115Z,82.36
2022-10-02T17:29:29.920Z,82.23
2022-10-02T17:32:01.778Z,82.33
2022-10-02T17:34:34.556Z,82.29
2022-10-02T17:37:24.406Z,82.31
2022-10-02T17:40:09.122Z,82.57
2022-10-02T17:42:44.254Z,82.72
2022-10-02T17:45:31.887Z,82.83
2022-10-02T17:48:15.367Z,83.12
2022-10-02T17:50:54.272Z,83.51
2022-10-02T17:53:51.789Z,83.57
2022-10-02T17:57:47.724Z,84.04
2022-10-02T18:00:24.546Z,83.92
2022-10-02T18:03:20.899Z,84.09
2022-10-02T18:05:57.567Z,84.41
2022-10-02T18:08:48.911Z,84.18
2022-10-02T18:11:27.996Z,83.86
2022-10-02T18:14:06.257Z,83.96
2022-10-02T18:17:00.900Z,83.95
2022-10-02T18:19:50.878Z,84.60
2022-10-02T18:22:30.761Z,84.64
2022-10-02T18:25:36.101Z,85.01
2022-10-02T18:28:24.455Z,84.59
2022-10-02T18:31:54.839Z,84.32
2022-10-02T18:35:00.523Z,84.27
2022-10-02T18:37:45.780Z,84.23
2022-10-02T18:40:27.336Z,84.03
2022-10-02T18:43:21.043Z,84.13
2022-10-02T18:46:02.715Z,83.84
2022-10-02T18:49:14.989Z,83.93
2022-10-02T18:52:18.098Z,83.51
2022-10-02T18:55:22.977Z,83.33
2022-10-02T18:58:20.188Z,83.01
2022-10-02T19:01:04.952Z,83.16
2022-10-02T19:03:53.281Z,82.32
2022-10-02T19:06:29.741Z,81.76
2022-10-02T19:09:08.660Z,81.44
2022-10-02T19:11:44.453Z,81.26
2022-10-02T19:14:21.522Z,80.46
2022-10-02T19:17:01.869Z,80.28
2022-10-02T19:19:29.959Z,80.33
2022-10-02T19:22:01.164Z,80.22
2022-10-02T19:24:32.966Z,80.55
2022-10-02T19:27:04.768Z,80.97
2022-10-02T19:29:54.345Z,80.63
2022-10-02T19:32:42.122Z,80.82
2022-10-02T19:35:20.695Z,80.74
2022-10-02T19:37:49.280Z,81.02
2022-10-02T19:40:21.729Z,81.92
2022-10-02T19:42:52.418Z,81.86
2022-10-02T19:45:26.428Z,82.12
2022-10-02T19:48:19.992Z,82.05
2022-10-02T19:50:51.618Z,82.34
2022-10-02T19:53:18.021Z,82.30
2022-10-02T19:55:47.406Z,82.85
2022-10-02T19:58:46.514Z,82.72
2022-10-02T20:01:19.493Z,82.94
2022-10-02T20:03:50.335Z,82.79
2022-10-02T20:06:22.135Z,83.25
2022-10-02T20:09:02.702Z,83.22
2022-10-02T20:11:42.931Z,83.02
2022-10-02T20:14:28.064Z,82.98
2022-10-02T20:17:09.541Z,82.95
2022-10-02T20:19:52.854Z,83.16
2022-10-02T20:22:45.437Z,82.13
2022-10-02T20:25:28.592Z,81.77
2022-10-02T20:28:17.351Z,81.60
2022-10-02T20:30:50.832Z,81.90
2022-10-02T20:33:25.876Z,81.70
2022-10-02T20:36:01.701Z,82.38
2022-10-02T20:38:35.125Z,82.85
2022-10-02T20:41:10.791Z,82.49
2022-10-02T20:43:44.934Z,82.42
2022-10-02T20:46:36.351Z,81.67
2022-10-02T20:49:27.747Z,81.86
2022-10-02T20:52:16.255Z,81.51
2022-10-02T20:55:02.814Z,81.26
2022-10-02T20:58:03.431Z,81.71
2022-10-02T21:01:00.193Z,81.23
2022-10-02T21:03:36.239Z,81.68
2022-10-02T21:06:21.186Z,82.02
2022-10-02T21:09:00.159Z,82.10
2022-10-02T21:11:59.252Z,81.91
2022-10-02T21:14:42.312Z,82.31
2022-10-02T21:17:15.134Z,82.94
2022-10-02T21:19:53.908Z,83.00
2022-10-02T21:22:24.628Z,83.17
2022-10-02T21:25:18.080Z,82.83
2022-10-02T21:28:15.356Z,83.18
2022-10-02T21:31:11.404Z,83.02
2022-10-02T21:33:41.874Z,83.28
2022-10-02T21:36:26.461Z,83.84
2022-10-02T21:39:30.742Z,84.10
2022-10-02T21:42:17.648Z,84.27
2022-10-02T21:45:11.139Z,84.51
2022-10-02T21:47:49.911Z,85.29
2022-10-02T21:50:45.732Z,85.46
2022-10-02T21:53:41.583Z,85.72
2022-10-02T21:56:26.612Z,86.50
2022-10-02T21:59:26.568Z,86.42
2022-10-02T22:02:08.890Z,86.56
2022-10-02T22:04:36.125Z,86.47
2022-10-02T22:07:54.926Z,86.92
2022-10-02T22:10:39.646Z,87.39
2022-10-02T22:13:27.992Z,87.74
2022-10-02T22:16:13.633Z,87.81
2022-10-02T22:18:51.694Z,87.69
2022-10-02T22:21:30.171Z,88.07
2022-10-02T22:24:14.960Z,88.03
2022-10-02T22:27:06.354Z,88.26
2022-10-02T22:29:54.438Z,88.38
2022-10-02T22:33:13.394Z,88.33
2022-10-02T22:36:01.681Z,88.47
2022-10-02T22:38:32.284Z,88.90
2022-10-02T22:41:06.821Z,88.96
2022-10-02T22:43:56.906Z,88.83
2022-10-02T22:46:29.404Z,88.98
2022-10-02T22:49:02.793Z,89.17
2022-10-02T22:51:50.858Z,89.29
2022-10-02T22:54:28.587Z,89.05
2022-10-02T22:57:10.591Z,88.97
2022-10-02T22:59:51.837Z,89.18
2022-10-02T23:02:26.085Z,89.05
2022-10-02T23:05:10.858Z,88.99
2022-10-02T23:07:49.696Z,89.50
2022-10-02T23:10:35.497Z,89.23
2022-10-02T23:13:21.197Z,89.91
2022-10-02T23:15:58.478Z,89.87
2022-10-02T23:18:45.176Z,89.99
2022-10-02T23:21:24.698Z,90.22
2022-10-02T23:24:13.107Z,89.91
2022-10-02T23:26:44.549Z,89.95
2022-10-02T23:29:48.677Z,90.32
2022-10-02T23:32:40.140Z,90.09
2022-10-02T23:35:28.630Z,90.39
2022-10-02T23:38:01.101Z,90.58
2022-10-02T23:41:13.083Z,90.20
2022-10-02T23:44:19.608Z,90.72
2022-10-02T23:46:48.990Z,90.87
2022-10-02T23:49:21.797Z,91.06
2022-10-02T23:52:09.048Z,91.35
2022-10-02T23:54:45.621Z,91.35
